Time;durP1;ratioP1;P1;durP2;ratioP2;P2;SDS_P1;SDS_P2;PMS_P1;PMS_P2;Temp;Humidity;BMP_temperature;BMP_pressure;BME280_temperature;BME280_humidity;BME280_pressure;Samples;Min_cycle;Max_cycle;Signal;HPM_P1;HPM_P2
2022/11/25 00:01:07;;;;;;;22.27;4.10;;;7.80;99.90;;;;;;5092965;28;20910;-78
2022/11/25 00:03:34;;;;;;;19.57;3.73;;;7.80;99.90;;;;;;5091566;28;20692;-79
2022/11/25 00:06:18;;;;;;;21.97;4.20;;;7.80;99.90;;;;;;5092882;28;20286;-78
2022/11/25 00:08:46;;;;;;;22.47;3.83;;;7.80;99.90;;;;;;5092639;28;20387;-78
2022/11/25 00:11:13;;;;;;;18.50;3.80;;;7.80;99.90;;;;;;5093141;28;20423;-78
2022/11/25 00:13:39;;;;;;;20.47;4.10;;;7.90;99.90;;;;;;5092549;28;20285;-79
2022/11/25 00:16:11;;;;;;;23.67;3.83;;;7.80;99.90;;;;;;5092825;28;20274;-79
2022/11/25 00:18:37;;;;;;;22.47;4.33;;;7.80;99.90;;;;;;5091727;28;20623;-79
2022/11/25 00:21:08;;;;;;;19.97;4.00;;;7.80;99.90;;;;;;5092745;28;20362;-79
2022/11/25 00:23:34;;;;;;;18.43;3.50;;;7.90;99.90;;;;;;5091219;28;20786;-79
2022/11/25 00:26:15;;;;;;;21.73;4.73;;;7.90;99.90;;;;;;5092960;28;20282;-78
2022/11/25 00:28:45;;;;;;;19.63;4.43;;;7.90;99.90;;;;;;5092764;28;20327;-78
2022/11/25 00:31:11;;;;;;;22.07;4.87;;;7.80;99.90;;;;;;5091727;28;20698;-78
2022/11/25 00:33:38;;;;;;;16.73;3.73;;;7.90;99.90;;;;;;5092376;28;20275;-79
2022/11/25 00:36:06;;;;;;;20.70;4.00;;;7.80;99.90;;;;;;5092643;28;20781;-78
2022/11/25 00:38:31;;;;;;;20.60;4.17;;;7.90;99.90;;;;;;5092188;28;20631;-78
2022/11/25 00:46:30;;;;;;;19.83;4.47;;;7.90;99.90;;;;;;5072602;28;20336;-78
2022/11/25 00:48:56;;;;;;;25.07;4.83;;;7.90;99.90;;;;;;5091583;28;20282;-78
2022/11/25 00:51:22;;;;;;;17.80;3.57;;;7.90;99.90;;;;;;5095878;28;20055;-78
2022/11/25 00:53:47;;;;;;;23.50;4.30;;;7.90;99.90;;;;;;5094641;28;20044;-79
2022/11/25 00:56:14;;;;;;;16.67;3.90;;;7.90;99.90;;;;;;5095070;28;20047;-78
2022/11/25 00:58:40;;;;;;;25.10;4.43;;;7.90;99.90;;;;;;5094745;28;20133;-79
2022/11/25 01:01:06;;;;;;;20.63;3.43;;;8.00;99.90;;;;;;5096009;28;20282;-79
2022/11/25 01:03:33;;;;;;;28.60;4.10;;;7.90;99.90;;;;;;5095848;28;20657;-79
2022/11/25 01:06:04;;;;;;;21.53;4.47;;;7.90;99.90;;;;;;5095574;28;20278;-78
2022/11/25 01:08:31;;;;;;;20.80;3.87;;;8.00;99.90;;;;;;5094862;28;20361;-78
2022/11/25 01:11:01;;;;;;;21.13;3.97;;;8.00;99.90;;;;;;5094296;28;20285;-79
2022/11/25 01:13:27;;;;;;;18.07;3.90;;;8.00;99.90;;;;;;5094527;28;20309;-79
2022/11/25 01:15:53;;;;;;;19.47;4.13;;;8.00;99.90;;;;;;5095318;28;20274;-79
2022/11/25 01:18:19;;;;;;;26.50;3.87;;;8.00;99.90;;;;;;5095587;28;20278;-79
2022/11/25 01:20:44;;;;;;;16.70;3.47;;;8.00;99.90;;;;;;5094496;28;20048;-79
2022/11/25 01:23:10;;;;;;;26.57;3.80;;;8.00;99.90;;;;;;5094459;28;20058;-79
2022/11/25 01:25:37;;;;;;;26.77;4.73;;;8.00;99.90;;;;;;5095183;28;20059;-79
2022/11/25 01:28:03;;;;;;;25.50;3.80;;;8.00;99.90;;;;;;5095199;28;20044;-79
2022/11/25 01:30:29;;;;;;;18.07;4.40;;;8.00;99.90;;;;;;5095678;28;20278;-79
2022/11/25 01:32:55;;;;;;;19.53;3.87;;;8.10;99.90;;;;;;5095086;28;20773;-79
2022/11/25 01:35:21;;;;;;;20.87;4.00;;;8.10;99.90;;;;;;5095310;28;20156;-79
2022/11/25 01:37:46;;;;;;;23.17;4.67;;;8.10;99.90;;;;;;5094793;28;20058;-79
2022/11/25 01:40:12;;;;;;;19.17;3.60;;;8.10;99.90;;;;;;5093939;28;20491;-79
2022/11/25 01:42:42;;;;;;;24.90;4.40;;;8.10;99.90;;;;;;5095298;28;20052;-78
2022/11/25 01:45:23;;;;;;;36.73;5.60;;;8.10;99.90;;;;;;5094665;28;20047;-78
2022/11/25 01:47:56;;;;;;;24.50;4.60;;;8.10;99.90;;;;;;5094738;28;20317;-78
2022/11/25 01:50:25;;;;;;;16.90;4.00;;;8.10;99.90;;;;;;5095018;28;20361;-78
2022/11/25 01:52:54;;;;;;;20.57;4.93;;;8.10;99.90;;;;;;5093632;28;20318;-79
2022/11/25 01:55:22;;;;;;;24.57;3.83;;;8.10;99.90;;;;;;5095100;28;20270;-78
2022/11/25 01:57:54;;;;;;;18.80;4.17;;;8.00;99.90;;;;;;5094861;28;20391;-83
2022/11/25 02:00:20;;;;;;;26.07;5.20;;;8.00;99.90;;;;;;5076961;28;20349;-78
2022/11/25 02:02:47;;;;;;;26.23;4.70;;;8.00;99.90;;;;;;5093581;28;20282;-78
2022/11/25 02:05:18;;;;;;;23.87;4.20;;;8.00;99.90;;;;;;5093769;28;20302;-78
2022/11/25 02:07:47;;;;;;;18.80;3.77;;;8.00;99.90;;;;;;5094681;28;20278;-78
2022/11/25 02:10:21;;;;;;;23.43;4.77;;;8.00;99.90;;;;;;5094011;28;20783;-78
2022/11/25 02:12:47;;;;;;;25.70;4.83;;;8.00;99.90;;;;;;5094589;28;20349;-78
2022/11/25 02:15:15;;;;;;;25.93;4.40;;;8.00;99.90;;;;;;5094218;28;20310;-77
2022/11/25 02:17:42;;;;;;;23.57;4.40;;;8.00;99.90;;;;;;5093274;28;20282;-78
2022/11/25 02:20:14;;;;;;;22.60;4.73;;;8.00;99.90;;;;;;5093137;28;20744;-77
2022/11/25 02:22:45;;;;;;;22.33;4.70;;;8.00;99.90;;;;;;5094587;28;20286;-78
2022/11/25 02:25:14;;;;;;;27.07;5.07;;;8.00;99.90;;;;;;5093935;28;20334;-78
2022/11/25 02:27:43;;;;;;;25.50;4.50;;;8.00;99.90;;;;;;5094298;28;20325;-77
2022/11/25 02:30:09;;;;;;;22.47;5.07;;;8.00;99.90;;;;;;5093934;28;20304;-77
2022/11/25 02:32:35;;;;;;;18.20;4.50;;;8.00;99.90;;;;;;5094455;28;20278;-77
2022/11/25 02:35:00;;;;;;;23.70;4.20;;;7.90;99.90;;;;;;5093937;28;20395;-78
2022/11/25 02:37:27;;;;;;;21.83;4.87;;;8.00;99.90;;;;;;5093922;28;20060;-78
2022/11/25 02:39:53;;;;;;;25.47;5.27;;;8.00;99.90;;;;;;5093916;28;20059;-79
2022/11/25 02:42:21;;;;;;;23.80;5.23;;;7.90;99.90;;;;;;5094060;28;20282;-78
2022/11/25 02:44:48;;;;;;;28.10;5.63;;;8.00;99.90;;;;;;5094077;28;20290;-78
2022/11/25 02:47:14;;;;;;;31.80;6.20;;;8.00;99.90;;;;;;5075811;28;20289;-79
2022/11/25 02:49:40;;;;;;;27.87;6.20;;;8.00;99.90;;;;;;5092970;28;20298;-78
2022/11/25 02:52:06;;;;;;;23.47;4.73;;;8.00;99.90;;;;;;5093590;28;20698;-78
2022/11/25 02:54:32;;;;;;;22.47;5.07;;;8.00;99.90;;;;;;5093950;28;20036;-78
2022/11/25 02:56:57;;;;;;;28.80;5.17;;;8.00;99.90;;;;;;5075551;28;20044;-79
2022/11/25 02:59:23;;;;;;;25.80;5.40;;;8.10;99.90;;;;;;5093701;28;20144;-78
2022/11/25 03:01:49;;;;;;;22.07;5.40;;;8.10;99.90;;;;;;5092432;28;20048;-78
2022/11/25 03:04:14;;;;;;;25.80;5.07;;;8.10;99.90;;;;;;5093305;28;20054;-78
2022/11/25 03:06:40;;;;;;;23.37;5.03;;;8.20;99.90;;;;;;5092366;28;20050;-78
2022/11/25 03:09:06;;;;;;;23.93;5.00;;;8.10;99.90;;;;;;5075396;28;20058;-79
2022/11/25 03:14:16;;;;;;;25.73;5.23;;;8.10;99.90;;;;;;5093244;28;20044;-79
2022/11/25 03:16:42;;;;;;;21.33;4.63;;;8.10;99.90;;;;;;5092704;28;20282;-78
2022/11/25 03:19:07;;;;;;;24.87;5.43;;;8.20;99.90;;;;;;5091881;28;20410;-78
2022/11/25 03:21:33;;;;;;;19.80;4.93;;;8.20;99.90;;;;;;5093653;28;20105;-78
2022/11/25 03:23:59;;;;;;;22.07;5.23;;;8.20;99.90;;;;;;5093088;28;20039;-79
2022/11/25 03:26:25;;;;;;;20.23;5.57;;;8.20;99.90;;;;;;5093306;28;20109;-78
2022/11/25 03:28:50;;;;;;;23.13;5.23;;;8.20;99.90;;;;;;5093465;28;20549;-78
2022/11/25 03:31:16;;;;;;;21.87;4.93;;;8.10;99.90;;;;;;5093021;28;20529;-79
2022/11/25 03:33:41;;;;;;;22.03;5.07;;;8.20;99.90;;;;;;5092427;28;20058;-79
2022/11/25 03:36:07;;;;;;;24.27;4.93;;;8.20;99.90;;;;;;5091958;28;20056;-79
2022/11/25 03:38:33;;;;;;;23.03;5.27;;;8.20;99.90;;;;;;5091644;28;20063;-79
2022/11/25 03:40:59;;;;;;;29.30;5.37;;;8.20;99.90;;;;;;5093146;28;20051;-79
2022/11/25 03:43:24;;;;;;;18.10;4.77;;;8.20;99.90;;;;;;5091913;28;20051;-79
2022/11/25 03:45:50;;;;;;;25.07;5.00;;;8.20;99.90;;;;;;5092133;28;20048;-79
2022/11/25 03:48:15;;;;;;;26.73;5.90;;;8.20;99.90;;;;;;5091850;28;20051;-80
2022/11/25 03:50:41;;;;;;;22.80;5.60;;;8.20;99.90;;;;;;5093103;28;20484;-80
2022/11/25 03:53:07;;;;;;;17.63;5.40;;;8.20;99.90;;;;;;5091761;28;20087;-80
2022/11/25 03:55:33;;;;;;;20.53;5.67;;;8.20;99.90;;;;;;5093213;28;20439;-79
2022/11/25 03:57:59;;;;;;;26.23;6.20;;;8.20;99.90;;;;;;5093001;28;20281;-79
2022/11/25 04:00:25;;;;;;;24.60;5.70;;;8.20;99.90;;;;;;5091772;28;20082;-79
2022/11/25 04:02:50;;;;;;;22.37;6.63;;;8.30;99.90;;;;;;5093006;28;20101;-79
2022/11/25 04:05:16;;;;;;;23.47;6.40;;;8.20;99.90;;;;;;5092664;28;20044;-79
2022/11/25 04:07:42;;;;;;;21.20;6.70;;;8.20;99.90;;;;;;5093205;28;20514;-79
2022/11/25 04:10:08;;;;;;;22.03;6.03;;;8.30;99.90;;;;;;5092615;28;20079;-80
2022/11/25 04:12:46;;;;;;;23.00;6.73;;;8.20;99.90;;;;;;5092872;28;20040;-79
2022/11/25 04:15:15;;;;;;;23.87;6.63;;;8.20;99.90;;;;;;5092699;28;20270;-79
2022/11/25 04:17:41;;;;;;;25.30;6.47;;;8.20;99.90;;;;;;5091651;28;20310;-79
2022/11/25 04:20:08;;;;;;;29.33;7.10;;;8.20;99.90;;;;;;5092666;28;20328;-80
2022/11/25 04:22:34;;;;;;;27.40;6.97;;;8.30;99.90;;;;;;5092768;28;20048;-79
2022/11/25 04:25:00;;;;;;;26.27;6.87;;;8.20;99.90;;;;;;5096313;28;20294;-79
2022/11/25 04:27:26;;;;;;;31.40;7.40;;;8.30;99.90;;;;;;5096278;28;20328;-80
2022/11/25 04:29:51;;;;;;;30.43;7.23;;;8.30;99.90;;;;;;5078352;28;20054;-79
2022/11/25 04:32:17;;;;;;;25.63;6.77;;;8.20;99.90;;;;;;5096268;28;20290;-80
2022/11/25 04:34:43;;;;;;;28.67;7.20;;;8.20;99.90;;;;;;5096664;28;20047;-80
2022/11/25 04:37:09;;;;;;;27.93;6.70;;;8.20;99.90;;;;;;5078032;28;20044;-80
2022/11/25 04:39:35;;;;;;;28.37;6.93;;;8.30;99.90;;;;;;5095602;28;20044;-79
2022/11/25 04:44:45;;;;;;;34.20;7.47;;;8.30;99.90;;;;;;5096504;28;20040;-79
2022/11/25 04:47:10;;;;;;;26.23;6.67;;;8.30;99.90;;;;;;5045063;28;20633;-79
2022/11/25 04:49:36;;;;;;;24.43;7.20;;;8.30;99.90;;;;;;5096237;28;20048;-79
2022/11/25 04:52:02;;;;;;;33.27;7.40;;;8.30;99.90;;;;;;5078182;28;20126;-79
2022/11/25 04:54:27;;;;;;;25.80;7.10;;;8.30;99.90;;;;;;5094819;28;20060;-79
2022/11/25 04:56:53;;;;;;;23.13;6.63;;;8.30;99.90;;;;;;5096007;28;20051;-79
2022/11/25 05:02:03;;;;;;;31.53;7.40;;;8.30;99.90;;;;;;5095957;28;20404;-79
2022/11/25 05:04:29;;;;;;;26.80;7.40;;;8.30;99.90;;;;;;5095400;28;20292;-79
2022/11/25 05:06:55;;;;;;;26.60;6.60;;;8.30;99.90;;;;;;5095354;28;20525;-79
2022/11/25 05:09:21;;;;;;;23.60;6.83;;;8.30;99.90;;;;;;5094243;28;20416;-80
2022/11/25 05:11:46;;;;;;;31.87;7.17;;;8.30;99.90;;;;;;5095805;28;20101;-79
2022/11/25 05:14:12;;;;;;;23.47;6.07;;;8.30;99.90;;;;;;5095251;28;20416;-80
2022/11/25 05:16:38;;;;;;;22.17;6.33;;;8.30;99.90;;;;;;5094595;28;20056;-79
2022/11/25 05:19:03;;;;;;;30.87;6.50;;;8.30;99.90;;;;;;5095652;28;20067;-79
2022/11/25 05:21:29;;;;;;;26.77;6.70;;;8.30;99.90;;;;;;5094183;28;20066;-80
2022/11/25 05:23:55;;;;;;;30.90;7.93;;;8.30;99.90;;;;;;5094952;28;20036;-79
2022/11/25 05:26:20;;;;;;;34.03;7.47;;;8.30;99.90;;;;;;5094093;28;20044;-80
2022/11/25 05:28:46;;;;;;;32.47;8.10;;;8.30;99.90;;;;;;5095369;28;20055;-80
2022/11/25 05:31:12;;;;;;;26.30;6.90;;;8.30;99.90;;;;;;5093957;28;20112;-82
2022/11/25 05:33:37;;;;;;;25.77;7.80;;;8.30;99.90;;;;;;5095299;28;20043;-80
2022/11/25 05:36:04;;;;;;;29.40;6.47;;;8.30;99.90;;;;;;5094771;28;20048;-80
2022/11/25 05:38:30;;;;;;;32.53;6.93;;;8.30;99.90;;;;;;5093569;28;20060;-80
2022/11/25 05:41:04;;;;;;;26.40;6.90;;;8.30;99.90;;;;;;5095404;28;20278;-80
2022/11/25 05:43:30;;;;;;;29.42;7.25;;;8.30;99.90;;;;;;5094797;28;20044;-80
2022/11/25 05:45:55;;;;;;;29.43;6.73;;;8.30;99.90;;;;;;5095100;28;20048;-80
2022/11/25 05:48:21;;;;;;;25.40;7.30;;;8.20;99.90;;;;;;5094595;28;20048;-80
2022/11/25 05:50:47;;;;;;;30.33;7.30;;;8.30;99.90;;;;;;5094960;28;20089;-80
2022/11/25 05:53:16;;;;;;;28.17;7.07;;;8.30;99.90;;;;;;5093687;28;20040;-80
2022/11/25 05:55:42;;;;;;;30.47;7.20;;;8.30;99.90;;;;;;5095010;28;20040;-80
2022/11/25 05:58:08;;;;;;;29.57;6.40;;;8.30;99.90;;;;;;5094955;28;20335;-79
2022/11/25 06:00:34;;;;;;;27.03;7.37;;;8.30;99.90;;;;;;5094476;28;20281;-80
2022/11/25 06:02:59;;;;;;;29.60;6.40;;;8.30;99.90;;;;;;5094759;28;20279;-80
2022/11/25 06:05:25;;;;;;;22.60;6.03;;;8.30;99.90;;;;;;5076316;28;20044;-80
2022/11/25 06:07:51;;;;;;;25.40;5.77;;;8.30;99.90;;;;;;5093717;28;20130;-80
2022/11/25 06:10:18;;;;;;;28.30;6.37;;;8.30;99.90;;;;;;5094224;28;20092;-84
2022/11/25 06:12:44;;;;;;;27.73;6.97;;;8.30;99.90;;;;;;5093558;28;20290;-80
2022/11/25 06:15:11;;;;;;;24.17;7.10;;;8.30;99.90;;;;;;5093442;28;20281;-80
2022/11/25 06:17:36;;;;;;;24.03;6.90;;;8.30;99.90;;;;;;5093243;28;20090;-80
2022/11/25 06:20:04;;;;;;;20.97;7.40;;;8.30;99.90;;;;;;5094444;28;20278;-80
2022/11/25 06:22:30;;;;;;;23.83;6.97;;;8.30;99.90;;;;;;5094070;28;20087;-80
2022/11/25 06:24:56;;;;;;;28.93;6.50;;;8.30;99.90;;;;;;5093805;28;20298;-79
2022/11/25 06:27:21;;;;;;;22.43;7.57;;;8.30;99.90;;;;;;5094332;28;20127;-80
2022/11/25 06:29:47;;;;;;;26.87;7.30;;;8.30;99.90;;;;;;5094708;28;20051;-80
2022/11/25 06:32:13;;;;;;;25.37;7.37;;;8.30;99.90;;;;;;5094152;28;20130;-80
2022/11/25 06:34:41;;;;;;;23.70;7.07;;;8.30;99.90;;;;;;5093791;28;20044;-80
2022/11/25 06:37:07;;;;;;;24.10;7.57;;;8.30;99.90;;;;;;5075815;28;20043;-79
2022/11/25 06:39:33;;;;;;;29.33;7.37;;;8.20;99.90;;;;;;5093459;28;20290;-79
2022/11/25 06:41:59;;;;;;;26.80;7.50;;;8.30;99.90;;;;;;5076391;28;20700;-80
2022/11/25 06:44:25;;;;;;;31.27;8.33;;;8.30;99.90;;;;;;5092398;28;20047;-80
2022/11/25 06:46:51;;;;;;;23.83;6.67;;;8.30;99.90;;;;;;5074766;28;20040;-80
2022/11/25 06:49:16;;;;;;;23.07;6.47;;;8.30;99.90;;;;;;5093783;28;20109;-81
2022/11/25 06:51:42;;;;;;;25.80;6.70;;;8.30;99.90;;;;;;5092268;28;20127;-81
2022/11/25 06:54:09;;;;;;;24.33;7.27;;;8.30;99.90;;;;;;5093790;28;20104;-81
2022/11/25 06:56:35;;;;;;;23.97;6.97;;;8.30;99.90;;;;;;5093455;28;20471;-81
2022/11/25 06:59:02;;;;;;;19.43;7.63;;;8.20;99.90;;;;;;5093764;28;20626;-80
2022/11/25 07:01:29;;;;;;;28.80;7.13;;;8.10;99.90;;;;;;5093285;28;20282;-82
2022/11/25 07:04:03;;;;;;;26.67;6.53;;;8.20;99.90;;;;;;5092326;28;20387;-81
2022/11/25 07:06:31;;;;;;;22.73;6.67;;;8.10;99.90;;;;;;5075644;28;20286;-80
2022/11/25 07:08:57;;;;;;;20.77;6.40;;;8.10;99.90;;;;;;5092669;28;20298;-80
2022/11/25 07:11:29;;;;;;;21.33;6.57;;;8.00;99.90;;;;;;5093444;28;20373;-80
2022/11/25 07:14:01;;;;;;;19.30;6.63;;;8.00;99.90;;;;;;5093686;28;20270;-80
2022/11/25 07:16:27;;;;;;;26.37;7.00;;;8.00;99.90;;;;;;5093175;28;20319;-81
2022/11/25 07:18:54;;;;;;;17.27;6.40;;;8.00;99.90;;;;;;5093397;28;20292;-81
2022/11/25 07:21:24;;;;;;;22.33;7.10;;;8.00;99.90;;;;;;5092177;28;20278;-80
2022/11/25 07:23:51;;;;;;;28.87;7.20;;;7.90;99.90;;;;;;5093168;28;20386;-81
2022/11/25 07:26:23;;;;;;;22.80;7.10;;;7.90;99.90;;;;;;5092379;28;20274;-80
2022/11/25 07:28:50;;;;;;;21.60;7.00;;;7.90;99.90;;;;;;5093051;28;20282;-81
2022/11/25 07:31:25;;;;;;;18.63;6.20;;;7.90;99.90;;;;;;5093502;28;20321;-81
2022/11/25 07:33:55;;;;;;;24.83;7.00;;;7.90;99.90;;;;;;5093015;28;20771;-81
2022/11/25 07:36:22;;;;;;;21.00;6.63;;;7.90;99.90;;;;;;5093214;28;20058;-80
2022/11/25 07:38:48;;;;;;;25.97;7.70;;;7.80;99.90;;;;;;5092776;28;20302;-80
2022/11/25 07:41:17;;;;;;;19.97;6.33;;;7.80;99.90;;;;;;5075275;28;20347;-80
2022/11/25 07:43:44;;;;;;;22.33;7.67;;;7.80;99.90;;;;;;5092780;28;20040;-81
2022/11/25 07:46:16;;;;;;;20.63;7.30;;;7.80;99.90;;;;;;5093066;28;20274;-80
2022/11/25 07:48:43;;;;;;;23.00;6.63;;;7.80;99.90;;;;;;5092781;28;20311;-81
2022/11/25 07:51:21;;;;;;;20.33;6.87;;;7.80;99.90;;;;;;5092995;28;20284;-80
2022/11/25 07:53:48;;;;;;;24.50;8.00;;;7.80;99.90;;;;;;5092769;28;20283;-80
2022/11/25 07:56:14;;;;;;;21.70;6.40;;;7.80;99.90;;;;;;5093025;28;20278;-80
2022/11/25 07:58:41;;;;;;;18.93;6.67;;;7.80;99.90;;;;;;5093328;28;20310;-81
2022/11/25 08:01:08;;;;;;;19.67;6.37;;;7.80;99.90;;;;;;5095954;28;20344;-81
2022/11/25 08:03:35;;;;;;;21.83;6.53;;;7.80;99.90;;;;;;5095532;28;20350;-81
2022/11/25 08:06:03;;;;;;;19.90;6.80;;;7.80;99.90;;;;;;5096980;28;20330;-81
2022/11/25 08:08:28;;;;;;;18.20;6.50;;;7.80;99.90;;;;;;5096887;28;20274;-80
2022/11/25 08:10:54;;;;;;;19.23;5.90;;;;;;;;;;5095695;28;20289;-78
2022/11/25 08:13:21;;;;;;;21.07;6.70;;;7.80;99.90;;;;;;5096151;28;20400;-79
2022/11/25 08:15:46;;;;;;;23.03;6.53;;;7.80;99.90;;;;;;5095624;28;20290;-79
2022/11/25 08:18:12;;;;;;;17.50;6.30;;;7.90;99.90;;;;;;5096944;28;20278;-78
2022/11/25 08:20:38;;;;;;;19.17;6.33;;;7.90;99.90;;;;;;5096460;28;20067;-80
2022/11/25 08:23:03;;;;;;;17.30;6.80;;;7.90;99.90;;;;;;5095799;28;20071;-80
2022/11/25 08:25:30;;;;;;;21.60;6.17;;;7.90;99.90;;;;;;5096539;28;20039;-78
2022/11/25 08:27:58;;;;;;;21.73;6.87;;;7.90;99.90;;;;;;5095139;28;20093;-77
2022/11/25 08:30:24;;;;;;;20.33;7.97;;;7.90;99.90;;;;;;5096661;28;20367;-80
2022/11/25 08:32:51;;;;;;;21.60;6.43;;;7.90;99.90;;;;;;5096355;28;20281;-80
2022/11/25 08:35:18;;;;;;;19.73;7.60;;;7.90;99.90;;;;;;5096658;28;20284;-79
2022/11/25 08:37:44;;;;;;;18.07;6.57;;;7.90;99.90;;;;;;5096115;28;20282;-80
2022/11/25 08:40:11;;;;;;;17.83;6.20;;;7.90;99.90;;;;;;5096642;28;20285;-79
2022/11/25 08:42:37;;;;;;;15.57;6.20;;;7.90;99.90;;;;;;5096172;28;20638;-79
2022/11/25 08:45:05;;;;;;;15.83;6.03;;;7.90;99.90;;;;;;5095074;28;20306;-79
2022/11/25 08:47:30;;;;;;;17.30;6.23;;;7.90;99.90;;;;;;5096279;28;20361;-80
2022/11/25 08:49:56;;;;;;;21.57;6.33;;;7.90;99.90;;;;;;5095536;28;20699;-80
2022/11/25 08:52:22;;;;;;;15.77;6.33;;;8.00;99.90;;;;;;5095117;28;20051;-79
2022/11/25 08:54:48;;;;;;;16.47;6.00;;;8.00;99.90;;;;;;5095847;28;20471;-79
2022/11/25 08:57:14;;;;;;;13.83;5.50;;;7.90;99.90;;;;;;5094867;28;20472;-78
2022/11/25 08:59:40;;;;;;;15.90;6.50;;;8.00;99.90;;;;;;5095766;28;20281;-79
2022/11/25 09:02:07;;;;;;;18.20;6.50;;;8.00;99.90;;;;;;5095914;28;20048;-79
2022/11/25 09:04:33;;;;;;;15.33;5.63;;;8.00;99.90;;;;;;5095856;28;20300;-80
2022/11/25 09:06:59;;;;;;;17.47;6.93;;;8.00;99.90;;;;;;5095557;28;20696;-80
2022/11/25 09:09:26;;;;;;;17.40;6.70;;;8.00;99.90;;;;;;5095230;28;20039;-79
2022/11/25 09:11:51;;;;;;;15.27;6.90;;;8.10;99.90;;;;;;5094968;28;20278;-80
2022/11/25 09:14:17;;;;;;;41.53;15.83;;;8.10;99.90;;;;;;5095742;28;20281;-80
2022/11/25 09:16:43;;;;;;;17.13;7.27;;;8.10;99.90;;;;;;5095399;28;20495;-80
2022/11/25 09:19:08;;;;;;;15.00;6.53;;;8.10;99.90;;;;;;5094908;28;20052;-80
2022/11/25 09:21:34;;;;;;;14.93;6.47;;;8.20;99.90;;;;;;5094310;28;20503;-81
2022/11/25 09:24:00;;;;;;;12.93;6.03;;;8.10;99.90;;;;;;5095191;28;20040;-79
2022/11/25 09:26:34;;;;;;;19.87;7.07;;;8.10;99.90;;;;;;5095261;28;20044;-81
2022/11/25 09:29:00;;;;;;;16.03;6.53;;;8.10;99.90;;;;;;5095153;28;20044;-81
2022/11/25 09:31:26;;;;;;;15.40;6.27;;;8.20;99.90;;;;;;5095319;28;20285;-80
2022/11/25 09:33:51;;;;;;;14.67;6.83;;;8.20;99.90;;;;;;5094049;28;20094;-81
2022/11/25 09:36:19;;;;;;;17.27;8.13;;;8.20;99.90;;;;;;5095231;28;20051;-79
2022/11/25 09:38:45;;;;;;;14.03;5.90;;;8.30;99.90;;;;;;5094933;28;20144;-81
2022/11/25 09:41:14;;;;;;;16.03;6.53;;;8.30;99.90;;;;;;5093922;28;20369;-80
2022/11/25 09:46:48;;;;;;;10.73;5.10;;;8.30;99.90;;;;;;5095196;28;20602;-80
2022/11/25 09:49:14;;;;;;;;;;;8.30;99.90;;;;;;5095375;28;20294;-80
2022/11/25 09:51:50;;;;;;;15.77;5.53;;;8.30;99.90;;;;;;5094958;28;19920;-80
2022/11/25 09:54:36;;;;;;;16.67;5.90;;;8.30;99.90;;;;;;5094172;28;20396;-79
2022/11/25 09:57:23;;;;;;;23.10;6.33;;;8.30;99.90;;;;;;5094268;28;20785;-78
2022/11/25 10:00:21;;;;;;;19.83;5.57;;;8.30;99.90;;;;;;5094683;28;20282;-79
2022/11/25 10:02:54;;;;;;;15.47;5.90;;;8.40;99.90;;;;;;5094805;28;20804;-81
2022/11/25 10:05:40;;;;;;;18.63;6.93;;;8.40;99.90;;;;;;5097190;28;20298;-82
2022/11/25 10:08:11;;;;;;;20.27;7.03;;;8.40;99.90;;;;;;5101815;28;20353;-84
2022/11/25 10:10:43;;;;;;;18.50;8.40;;;8.50;99.90;;;;;;5108093;28;20285;-79
2022/11/25 10:13:28;;;;;;;14.37;6.00;;;8.60;99.90;;;;;;5114793;28;20276;-79
2022/11/25 10:16:00;;;;;;;16.40;5.83;;;8.70;99.90;;;;;;5114553;28;20265;-78
2022/11/25 10:18:44;;;;;;;18.97;5.33;;;8.70;99.90;;;;;;5115267;28;20273;-78
2022/11/25 10:21:10;;;;;;;17.13;5.17;;;8.70;99.90;;;;;;5114027;28;20281;-78
2022/11/25 10:23:38;;;;;;;18.40;5.30;;;8.70;99.90;;;;;;5114457;28;20281;-81
2022/11/25 10:26:16;;;;;;;12.67;4.67;;;8.70;99.90;;;;;;5114187;27;20837;-82
2022/11/25 10:28:54;;;;;;;17.10;4.53;;;8.70;99.90;;;;;;5113532;28;20350;-82
2022/11/25 10:31:29;;;;;;;19.77;5.23;;;8.80;99.90;;;;;;5114636;28;20289;-80
2022/11/25 10:33:58;;;;;;;13.18;4.38;;;8.80;99.90;;;;;;5114305;28;20329;-82
2022/11/25 10:36:31;;;;;;;15.77;4.17;;;8.80;99.90;;;;;;5114433;28;20048;-81
2022/11/25 10:38:59;;;;;;;15.13;5.50;;;8.80;99.90;;;;;;5112985;28;20296;-80
2022/11/25 10:41:35;;;;;;;17.33;4.47;;;8.90;99.90;;;;;;5112924;28;20607;-80
2022/11/25 10:44:02;;;;;;;14.77;5.17;;;8.90;99.90;;;;;;5124059;27;20696;-82
2022/11/25 10:46:42;;;;;;;16.60;4.60;;;9.00;99.90;;;;;;5109938;27;20724;-81
2022/11/25 10:49:22;;;;;;;16.10;5.43;;;9.00;99.90;;;;;;5109455;28;20290;-78
2022/11/25 10:51:49;;;;;;;17.00;4.40;;;9.10;99.90;;;;;;5086468;28;20629;-82
2022/11/25 10:54:26;;;;;;;9.77;3.50;;;9.30;99.90;;;;;;5102881;28;20274;-82
2022/11/25 10:56:56;;;;;;;13.20;3.60;;;9.40;99.90;;;;;;5089326;28;20284;-82
2022/11/25 10:59:34;;;;;;;16.60;4.43;;;9.40;99.90;;;;;;5099217;28;20285;-80
2022/11/25 11:02:23;;;;;;;14.53;3.30;;;9.40;99.90;;;;;;5103007;28;20347;-80
2022/11/25 11:05:07;;;;;;;15.07;3.53;;;9.40;99.90;;;;;;5099813;28;20394;-78
2022/11/25 11:07:36;;;;;;;14.03;3.73;;;9.50;99.90;;;;;;5120189;27;20277;-79
2022/11/25 11:10:14;;;;;;;16.17;3.07;;;9.50;99.90;;;;;;5102021;28;20301;-79
2022/11/25 11:13:05;;;;;;;15.97;3.67;;;9.50;99.90;;;;;;5100984;28;20290;-79
2022/11/25 11:15:39;;;;;;;17.13;3.50;;;9.40;99.90;;;;;;5102850;28;20641;-79
2022/11/25 11:18:41;;;;;;;15.60;3.30;;;9.50;99.90;;;;;;5103344;28;20321;-81
2022/11/25 11:21:20;;;;;;;23.03;3.63;;;9.60;99.90;;;;;;5101811;28;20292;-80
2022/11/25 11:23:48;;;;;;;20.37;3.47;;;9.50;99.90;;;;;;5118257;27;20274;-76
2022/11/25 11:26:22;;;;;;;20.93;4.30;;;9.60;99.90;;;;;;5101680;28;20278;-83
2022/11/25 11:29:12;;;;;;;13.93;3.30;;;9.60;99.90;;;;;;5109746;28;20650;-77
2022/11/25 11:31:44;;;;;;;17.10;3.60;;;9.60;99.90;;;;;;5113632;28;20303;-79
2022/11/25 11:34:30;;;;;;;14.53;3.93;;;9.60;99.90;;;;;;5112827;28;20348;-78
2022/11/25 11:37:08;;;;;;;19.70;4.17;;;9.70;99.90;;;;;;5113303;28;20338;-82
2022/11/25 11:39:39;;;;;;;16.83;3.43;;;9.70;99.90;;;;;;5113214;28;20380;-79
2022/11/25 11:42:26;;;;;;;21.50;4.90;;;9.70;99.90;;;;;;5113239;28;20289;-81
2022/11/25 11:45:17;;;;;;;17.57;3.73;;;9.70;99.90;;;;;;5112485;28;20833;-79
2022/11/25 11:47:57;;;;;;;17.67;3.60;;;9.70;99.90;;;;;;5113559;28;20365;-75
2022/11/25 11:50:52;;;;;;;18.73;3.53;;;9.70;99.90;;;;;;5113537;28;20289;-76
2022/11/25 11:53:44;;;;;;;20.27;4.73;;;9.70;99.90;;;;;;5113347;28;20279;-77
2022/11/25 11:56:38;;;;;;;16.63;3.23;;;9.70;99.90;;;;;;5084880;28;20302;-81
2022/11/25 11:59:26;;;;;;;16.10;3.13;;;9.70;99.90;;;;;;5089714;28;20382;-79
2022/11/25 12:02:16;;;;;;;16.57;3.33;;;9.80;99.90;;;;;;5091310;28;20318;-79
2022/11/25 12:05:09;;;;;;;17.23;4.00;;;9.80;99.90;;;;;;5093084;28;20305;-79
2022/11/25 12:07:51;;;;;;;24.33;4.80;;;9.80;99.90;;;;;;5093165;28;20290;-79
2022/11/25 12:10:41;;;;;;;19.10;3.73;;;9.80;99.90;;;;;;5092799;28;20277;-79
2022/11/25 12:13:25;;;;;;;16.97;3.33;;;9.80;99.90;;;;;;5092718;28;20282;-79
2022/11/25 12:15:55;;;;;;;21.40;3.57;;;9.70;99.90;;;;;;5093055;28;20278;-79
2022/11/25 12:18:49;;;;;;;19.10;4.10;;;9.70;99.90;;;;;;5092549;28;20292;-79
2022/11/25 12:21:40;;;;;;;18.60;3.77;;;9.80;99.90;;;;;;5091497;28;20290;-79
2022/11/25 12:24:15;;;;;;;23.10;3.87;;;9.80;99.90;;;;;;5092520;28;20338;-79
2022/11/25 12:26:53;;;;;;;;;;;9.70;99.90;;;;;;5093189;28;20329;-79
2022/11/25 12:29:35;;;;;;;14.37;3.43;;;9.70;99.90;;;;;;5091260;28;19924;-78
2022/11/25 12:32:13;;;;;;;24.97;3.90;;;9.70;99.90;;;;;;5092489;28;20781;-79
2022/11/25 12:35:01;;;;;;;16.60;4.40;;;9.70;99.90;;;;;;5091827;28;20298;-79
2022/11/25 12:37:36;;;;;;;19.27;3.40;;;9.80;99.90;;;;;;5092589;28;20297;-79
2022/11/25 12:40:13;;;;;;;22.23;4.65;;;9.80;99.90;;;;;;5093084;28;20293;-79
2022/11/25 12:42:40;;;;;;;17.03;4.53;;;9.80;99.90;;;;;;5075026;28;20134;-78
2022/11/25 12:45:19;;;;;;;19.20;3.73;;;9.80;99.90;;;;;;5093135;28;20342;-80
2022/11/25 12:47:45;;;;;;;21.10;3.70;;;9.80;99.90;;;;;;5096430;28;20293;-79
2022/11/25 12:50:18;;;;;;;21.67;3.43;;;9.80;99.90;;;;;;5095559;28;20765;-79
2022/11/25 12:53:01;;;;;;;25.93;4.47;;;9.80;99.90;;;;;;5096391;28;20274;-78
2022/11/25 12:55:29;;;;;;;16.80;3.33;;;9.80;99.90;;;;;;5094922;28;20633;-79
2022/11/25 12:58:31;;;;;;;25.53;3.80;;;9.80;99.90;;;;;;5096008;28;20365;-79
2022/11/25 13:01:20;;;;;;;19.77;4.33;;;10.00;99.90;;;;;;5095248;28;20294;-79
2022/11/25 13:04:07;;;;;;;22.37;3.63;;;9.90;99.90;;;;;;5075793;28;20283;-79
2022/11/25 13:06:38;;;;;;;25.17;4.77;;;10.20;99.90;;;;;;5075594;28;20373;-79
2022/11/25 13:09:22;;;;;;;24.13;4.17;;;10.20;99.90;;;;;;5075617;28;20278;-79
2022/11/25 13:12:06;;;;;;;16.10;3.10;;;10.30;99.90;;;;;;5075425;28;20295;-79
2022/11/25 13:15:09;;;;;;;15.00;3.20;;;10.30;99.90;;;;;;5075472;28;20287;-79
2022/11/25 13:17:40;;;;;;;19.90;3.23;;;10.30;99.90;;;;;;5075361;28;20290;-79
2022/11/25 13:20:27;;;;;;;25.23;3.70;;;10.30;99.90;;;;;;5074523;28;20286;-79